createdAt,value
2017-09-24T00:00:03.705Z,76.80
2017-09-24T00:05:31.864Z,76.80
2017-09-24T00:11:00.020Z,76.80
2017-09-24T00:16:28.166Z,76.80
2017-09-24T00:21:56.312Z,77.00
2017-09-24T00:27:24.466Z,77.00
2017-09-24T00:32:52.648Z,77.10
2017-09-24T00:38:20.806Z,77.10
2017-09-24T00:43:48.966Z,77.20
2017-09-24T00:49:17.130Z,77.50
2017-09-24T00:54:45.271Z,77.40
2017-09-24T01:00:13.411Z,77.80
2017-09-24T01:05:41.651Z,78.00
2017-09-24T01:11:09.895Z,78.00
2017-09-24T01:16:38.821Z,78.10
2017-09-24T01:22:07.128Z,78.00
2017-09-24T01:27:35.385Z,77.90
2017-09-24T01:33:03.608Z,77.90
2017-09-24T01:38:31.761Z,77.90
2017-09-24T01:43:59.906Z,78.00
2017-09-24T01:49:28.059Z,78.10
2017-09-24T01:54:56.203Z,77.90
2017-09-24T02:00:24.359Z,77.90
2017-09-24T02:05:53.308Z,78.00
2017-09-24T02:11:22.235Z,78.10
2017-09-24T02:16:50.370Z,78.10
2017-09-24T02:22:19.274Z,77.90
2017-09-24T02:27:47.427Z,77.90
2017-09-24T02:33:15.570Z,78.00
2017-09-24T02:38:43.706Z,78.00
2017-09-24T02:44:11.853Z,78.10
2017-09-24T02:49:40.759Z,78.30
2017-09-24T02:55:08.999Z,78.20
2017-09-24T03:00:37.152Z,78.20
2017-09-24T03:06:05.285Z,78.40
2017-09-24T03:11:34.204Z,78.60
2017-09-24T03:17:02.360Z,78.70
2017-09-24T03:22:30.499Z,78.60
2017-09-24T03:27:58.634Z,78.70
2017-09-24T03:33:27.557Z,78.90
2017-09-24T03:38:55.695Z,78.80
2017-09-24T03:44:23.836Z,78.90
2017-09-24T03:49:52.749Z,78.90
2017-09-24T03:55:20.878Z,78.90
2017-09-24T04:00:49.087Z,78.90
2017-09-24T04:06:17.241Z,78.90
2017-09-24T04:11:45.383Z,79.90
2017-09-24T04:17:13.556Z,80.00
2017-09-24T04:22:41.699Z,79.80
2017-09-24T04:28:09.841Z,80.00
2017-09-24T04:33:37.984Z,80.00
2017-09-24T04:39:06.886Z,80.20
2017-09-24T04:44:35.018Z,80.20
2017-09-24T04:50:03.174Z,80.30
2017-09-24T04:55:31.419Z,80.30
2017-09-24T05:01:00.364Z,80.50
2017-09-24T05:06:28.519Z,80.50
2017-09-24T05:11:56.661Z,80.50
2017-09-24T05:17:24.804Z,80.50
2017-09-24T05:22:52.935Z,80.50
2017-09-24T05:28:21.847Z,80.40
2017-09-24T05:33:49.987Z,80.40
2017-09-24T05:39:18.119Z,80.40
2017-09-24T05:44:47.048Z,80.50
2017-09-24T05:50:15.201Z,80.40
2017-09-24T05:55:44.301Z,80.50
2017-09-24T06:01:12.468Z,80.50
2017-09-24T06:06:40.620Z,80.60
2017-09-24T06:12:08.766Z,79.50
2017-09-24T06:17:36.898Z,79.30
2017-09-24T06:23:05.053Z,79.50
2017-09-24T06:28:33.232Z,79.50
2017-09-24T06:34:05.823Z,79.30
2017-09-24T06:39:33.993Z,79.30
2017-09-24T06:45:02.919Z,79.20
2017-09-24T06:50:31.085Z,79.20
2017-09-24T06:55:59.256Z,79.00
2017-09-24T07:01:27.425Z,79.10
2017-09-24T07:06:55.585Z,79.00
2017-09-24T07:12:23.735Z,79.70
2017-09-24T07:17:51.926Z,79.30
2017-09-24T07:23:21.079Z,78.60
2017-09-24T07:28:49.259Z,78.30
2017-09-24T07:34:18.211Z,77.80
2017-09-24T07:39:46.384Z,77.70
2017-09-24T07:45:14.546Z,77.20
2017-09-24T07:50:42.699Z,76.90
2017-09-24T07:56:10.848Z,76.40
2017-09-24T08:01:38.988Z,75.70
2017-09-24T08:07:07.154Z,75.40
2017-09-24T08:12:35.302Z,75.00
2017-09-24T08:18:03.539Z,73.90
2017-09-24T08:23:31.703Z,73.50
2017-09-24T08:28:59.858Z,72.70
2017-09-24T08:34:29.174Z,72.80
2017-09-24T08:39:59.432Z,71.10
2017-09-24T08:45:27.680Z,70.30
2017-09-24T08:50:56.064Z,70.30
2017-09-24T08:56:24.459Z,70.30
2017-09-24T09:01:52.746Z,70.40
2017-09-24T09:07:21.146Z,69.00
2017-09-24T09:12:49.306Z,68.90
2017-09-24T09:18:20.834Z,69.10
2017-09-24T09:23:51.250Z,67.50
2017-09-24T09:29:19.514Z,66.80
2017-09-24T09:35:05.703Z,64.70
2017-09-24T09:40:33.934Z,65.20
2017-09-24T09:46:05.928Z,64.20
2017-09-24T09:51:34.105Z,63.40
2017-09-24T09:57:02.251Z,63.10
2017-09-24T10:02:30.454Z,62.10
2017-09-24T10:14:17.254Z,62.70
2017-09-24T10:19:45.416Z,62.60
2017-09-24T10:25:13.563Z,62.50
2017-09-24T10:30:58.277Z,61.20
2017-09-24T10:36:26.462Z,61.10
2017-09-24T10:41:55.366Z,58.90
2017-09-24T10:47:23.524Z,58.80
2017-09-24T10:52:51.694Z,59.40
2017-09-24T10:58:19.868Z,58.10
2017-09-24T11:03:48.027Z,57.70
2017-09-24T11:09:16.207Z,57.60
2017-09-24T11:14:44.351Z,57.00
2017-09-24T11:20:12.530Z,55.60
2017-09-24T11:25:40.706Z,54.50
2017-09-24T11:31:09.662Z,54.50
2017-09-24T11:36:39.602Z,54.60
2017-09-24T11:42:07.903Z,54.40
2017-09-24T11:47:37.143Z,53.90
2017-09-24T11:53:05.314Z,53.50
2017-09-24T11:58:33.522Z,53.40
2017-09-24T12:04:01.944Z,54.70
2017-09-24T12:09:30.107Z,55.00
2017-09-24T12:14:58.261Z,55.40
2017-09-24T12:20:26.437Z,55.00
2017-09-24T12:25:54.609Z,54.90
2017-09-24T12:31:22.763Z,54.70
2017-09-24T12:36:50.949Z,53.90
2017-09-24T12:42:21.126Z,52.50
2017-09-24T12:47:49.266Z,52.40
2017-09-24T12:53:17.527Z,50.70
2017-09-24T12:58:45.687Z,49.00
2017-09-24T13:04:13.916Z,50.00
2017-09-24T13:09:49.663Z,50.00
2017-09-24T13:15:17.860Z,51.00
2017-09-24T13:20:46.007Z,49.60
2017-09-24T13:26:14.164Z,48.70
2017-09-24T13:31:42.314Z,49.10
2017-09-24T13:37:10.461Z,49.10
2017-09-24T13:42:38.624Z,48.30
2017-09-24T13:48:06.792Z,48.00
2017-09-24T13:53:34.944Z,49.00
2017-09-24T13:59:03.108Z,48.90
2017-09-24T14:04:31.248Z,49.70
2017-09-24T14:09:59.407Z,50.10
2017-09-24T14:15:27.574Z,50.10
2017-09-24T14:20:55.735Z,51.00
2017-09-24T14:26:23.893Z,50.40
2017-09-24T14:31:52.044Z,51.20
2017-09-24T14:37:20.192Z,51.20
2017-09-24T14:42:48.452Z,50.30
2017-09-24T14:48:16.605Z,51.70
2017-09-24T14:53:44.784Z,51.30
2017-09-24T14:59:13.108Z,53.20
2017-09-24T15:04:41.351Z,54.80
2017-09-24T15:10:12.253Z,56.50
2017-09-24T15:15:40.409Z,56.50
2017-09-24T15:21:08.554Z,57.10
2017-09-24T15:26:36.839Z,57.60
2017-09-24T15:32:05.736Z,58.10
2017-09-24T15:37:33.910Z,58.40
2017-09-24T15:43:02.128Z,59.10
2017-09-24T15:48:30.288Z,59.40
2017-09-24T15:53:58.446Z,59.60
2017-09-24T15:59:27.373Z,60.30
2017-09-24T16:04:55.588Z,60.20
2017-09-24T16:10:24.016Z,60.40
2017-09-24T16:15:52.221Z,61.10
2017-09-24T16:21:20.470Z,61.00
2017-09-24T16:26:49.401Z,61.80
2017-09-24T16:32:18.800Z,62.30
2017-09-24T16:37:47.045Z,62.90
2017-09-24T16:43:15.235Z,64.30
2017-09-24T16:48:43.640Z,63.10
2017-09-24T16:54:11.810Z,64.70
2017-09-24T16:59:39.978Z,65.90
2017-09-24T17:05:08.187Z,66.70
2017-09-24T17:10:37.106Z,68.20
2017-09-24T17:16:05.263Z,68.10
2017-09-24T17:21:33.433Z,68.90
2017-09-24T17:27:01.606Z,69.10
2017-09-24T17:32:29.770Z,69.80
2017-09-24T17:37:57.915Z,70.00
2017-09-24T17:43:26.092Z,70.70
2017-09-24T17:48:54.248Z,70.90
2017-09-24T17:54:22.423Z,71.40
2017-09-24T17:59:51.392Z,71.80
2017-09-24T18:05:19.561Z,71.80
2017-09-24T18:10:47.737Z,71.40
2017-09-24T18:16:15.900Z,70.50
2017-09-24T18:21:44.054Z,70.50
2017-09-24T18:27:12.381Z,71.10
2017-09-24T18:32:40.537Z,70.90
2017-09-24T18:38:09.627Z,70.80
2017-09-24T18:43:37.771Z,71.00
2017-09-24T18:49:05.960Z,71.30
2017-09-24T18:54:34.123Z,71.80
2017-09-24T19:00:03.166Z,72.20
2017-09-24T19:05:31.335Z,72.20
2017-09-24T19:10:59.500Z,72.10
2017-09-24T19:16:28.412Z,72.50
2017-09-24T19:21:56.568Z,72.20
2017-09-24T19:27:24.722Z,72.70
2017-09-24T19:32:52.889Z,72.70
2017-09-24T19:38:21.055Z,72.60
2017-09-24T19:43:49.217Z,73.10
2017-09-24T19:49:17.393Z,73.30
2017-09-24T19:54:45.553Z,73.60
2017-09-24T20:00:13.716Z,73.60
2017-09-24T20:05:41.882Z,74.00
2017-09-24T20:11:10.053Z,74.10
2017-09-24T20:16:39.891Z,74.60
2017-09-24T20:22:08.055Z,74.60
2017-09-24T20:27:36.222Z,74.60
2017-09-24T20:33:04.381Z,75.10
2017-09-24T20:38:32.549Z,75.20
2017-09-24T20:44:00.695Z,75.30
2017-09-24T20:49:28.836Z,75.60
2017-09-24T20:54:56.979Z,75.80
2017-09-24T21:00:26.133Z,75.80
2017-09-24T21:05:55.056Z,76.40
2017-09-24T21:11:23.238Z,76.20
2017-09-24T21:16:51.392Z,76.30
2017-09-24T21:22:19.546Z,76.50
2017-09-24T21:27:47.759Z,76.60
2017-09-24T21:33:16.680Z,77.00
2017-09-24T21:38:44.852Z,77.10
2017-09-24T21:44:13.016Z,77.10
2017-09-24T21:49:41.178Z,77.20
2017-09-24T21:55:09.565Z,77.30
2017-09-24T22:00:37.763Z,77.30
2017-09-24T22:06:05.998Z,77.50
2017-09-24T22:11:34.187Z,77.50
2017-09-24T22:17:02.474Z,77.60
2017-09-24T22:22:30.713Z,77.60
2017-09-24T22:27:58.968Z,77.50
2017-09-24T22:33:27.144Z,77.70
2017-09-24T22:38:55.936Z,77.70
2017-09-24T22:44:26.042Z,77.70
2017-09-24T22:49:54.333Z,77.60
2017-09-24T22:55:22.598Z,77.70
2017-09-24T23:00:50.786Z,77.70
2017-09-24T23:06:18.988Z,77.70
2017-09-24T23:11:47.919Z,77.70
2017-09-24T23:17:16.074Z,77.70
2017-09-24T23:22:44.217Z,77.80
2017-09-24T23:28:12.459Z,77.80
2017-09-24T23:33:41.366Z,77.80
2017-09-24T23:39:09.526Z,77.80
2017-09-24T23:44:37.658Z,78.00
2017-09-24T23:50:05.805Z,78.10
2017-09-24T23:55:34.717Z,77.90
